Time;durP1;ratioP1;P1;durP2;ratioP2;P2;SDS_P1;SDS_P2;PMS_P1;PMS_P2;Temp;Humidity;BMP_temperature;BMP_pressure;BME280_temperature;BME280_humidity;BME280_pressure;Samples;Min_cycle;Max_cycle;Signal;HPM_P1;HPM_P2
2023/04/09 00:01:07;;;;;;;13.37;11.90;;;;;;;5.18;100.00;99964.63;4920436;29;20221;-79
2023/04/09 00:03:34;;;;;;;13.40;12.10;;;;;;;5.15;100.00;99951.72;4919758;29;20222;-84
2023/04/09 00:06:01;;;;;;;14.20;12.70;;;;;;;5.12;100.00;99957.41;4901624;29;20191;-81
2023/04/09 00:08:28;;;;;;;13.63;12.33;;;;;;;5.18;100.00;99964.63;4903833;29;20225;-81
2023/04/09 00:10:56;;;;;;;13.33;11.93;;;;;;;5.17;100.00;99959.53;4916980;29;20206;-80
2023/04/09 00:13:23;;;;;;;13.83;12.43;;;;;;;5.17;100.00;99952.38;4916879;29;20285;-80
2023/04/09 00:16:04;;;;;;;13.60;12.20;;;;;;;5.20;100.00;99948.53;4915666;29;20195;-80
2023/04/09 00:18:31;;;;;;;13.27;11.93;;;;;;;5.17;100.00;99952.38;4902470;29;20281;-82
2023/04/09 00:20:58;;;;;;;13.47;12.07;;;;;;;5.18;100.00;99950.56;4916866;29;20202;-82
2023/04/09 00:23:24;;;;;;;14.13;12.63;;;;;;;5.13;100.00;99958.22;4916747;29;20224;-82
2023/04/09 00:25:51;;;;;;;13.77;12.07;;;;;;;5.12;100.00;99961.88;4915638;29;20217;-81
2023/04/09 00:28:18;;;;;;;13.50;12.10;;;;;;;5.07;100.00;99957.09;4919449;29;20296;-82
2023/04/09 00:30:44;;;;;;;13.83;12.30;;;;;;;5.12;100.00;99956.56;4901146;29;20290;-81
2023/04/09 00:33:11;;;;;;;13.83;12.43;;;;;;;5.13;100.00;99953.72;4897782;29;20240;-80
2023/04/09 00:35:38;;;;;;;15.20;12.70;;;;;;;5.12;100.00;99961.88;4898520;29;20664;-80
2023/04/09 00:38:05;;;;;;;14.17;12.73;;;;;;;5.11;100.00;99953.09;4917525;29;20194;-82
2023/04/09 00:40:31;;;;;;;13.80;12.40;;;;;;;5.12;100.00;99954.75;4922129;29;20677;-80
2023/04/09 00:42:58;;;;;;;14.00;12.50;;;;;;;5.10;100.00;99954.06;4916290;29;20203;-82
2023/04/09 00:45:25;;;;;;;13.47;12.07;;;;;;;5.20;100.00;99959.16;4900365;29;20194;-81
2023/04/09 00:47:52;;;;;;;14.00;12.50;;;;;;;5.29;100.00;99963.41;4914343;29;20206;-80
2023/04/09 00:50:20;;;;;;;14.33;12.83;;;;;;;5.18;100.00;99961.19;4900645;29;20293;-80
2023/04/09 00:52:47;;;;;;;14.10;12.40;;;;;;;5.12;100.00;99957.41;4900832;29;20202;-80
2023/04/09 00:55:14;;;;;;;14.40;12.87;;;;;;;5.13;100.00;99961.69;4905811;29;20346;-80
2023/04/09 00:57:40;;;;;;;14.87;13.27;;;;;;;5.11;100.00;99958.41;4919941;29;20194;-83
2023/04/09 01:00:08;;;;;;;15.53;13.63;;;;;;;5.12;100.00;99957.41;4917340;29;20198;-80
2023/04/09 01:02:35;;;;;;;15.50;13.90;;;;;;;5.11;100.00;99953.09;4916260;29;20205;-81
2023/04/09 01:05:02;;;;;;;15.27;13.70;;;;;;;5.17;100.00;99964.84;4921356;29;20237;-81
2023/04/09 01:07:58;;;;;;;15.53;13.93;;;;;;;5.16;100.00;99961.34;4921114;29;20229;-80
2023/04/09 01:10:37;;;;;;;15.33;13.73;;;;;;;5.15;100.00;99956.19;4896448;29;20206;-84
2023/04/09 01:13:12;;;;;;;15.20;13.70;;;;;;;5.16;100.00;99957.88;4899085;29;20204;-80
2023/04/09 01:15:44;;;;;;;15.50;13.90;;;;;;;5.13;100.00;99951.06;4907951;29;20206;-80
2023/04/09 01:18:35;;;;;;;15.23;13.63;;;;;;;5.11;100.00;99961.06;4899511;29;20256;-81
2023/04/09 01:21:05;;;;;;;15.07;13.47;;;;;;;5.20;100.00;99956.50;4884538;29;20206;-82
2023/04/09 01:23:43;;;;;;;14.57;13.07;;;;;;;5.09;100.00;99956.91;4901362;29;20218;-81
2023/04/09 01:26:39;;;;;;;15.10;13.40;;;;;;;5.04;100.00;99965.41;4916716;29;20203;-82
2023/04/09 01:29:07;;;;;;;14.67;13.07;;;;;;;5.03;100.00;99949.66;4924577;29;20234;-82
2023/04/09 01:31:36;;;;;;;14.67;13.03;;;;;;;5.07;100.00;99961.56;4916760;29;20198;-81
2023/04/09 01:34:05;;;;;;;12.77;11.40;;;;;;;5.12;100.00;99953.91;4920952;29;20201;-80
2023/04/09 01:36:32;;;;;;;13.30;12.00;;;;;;;4.98;100.00;99954.66;4915338;29;20214;-82
2023/04/09 01:39:00;;;;;;;13.87;11.87;;;;;;;4.96;100.00;99956.66;4897191;29;20214;-81
2023/04/09 01:41:30;;;;;;;13.23;11.83;;;;;;;4.94;100.00;99954.19;4916173;29;20194;-83
2023/04/09 01:44:00;;;;;;;13.03;11.73;;;;;;;4.90;100.00;99952.06;4919921;29;20226;-80
2023/04/09 01:46:28;;;;;;;12.57;11.27;;;;;;;4.88;100.00;99950.41;4917029;29;20273;-83
2023/04/09 01:48:58;;;;;;;12.80;11.53;;;;;;;4.86;100.00;99957.72;4900161;29;20238;-84
2023/04/09 01:51:26;;;;;;;13.37;12.07;;;;;;;4.86;100.00;99954.22;4899673;29;20225;-81
2023/04/09 01:53:52;;;;;;;13.07;11.77;;;;;;;4.96;100.00;99954.00;4917575;29;20200;-83
2023/04/09 01:56:20;;;;;;;11.17;10.07;;;;;;;4.93;100.00;99952.53;4902466;29;20206;-80
2023/04/09 01:58:46;;;;;;;11.60;10.40;;;;;;;4.90;100.00;99955.53;4911732;29;20203;-80
2023/04/09 02:01:26;;;;;;;11.90;10.70;;;;;;;4.92;100.00;99953.53;4915158;29;20198;-81
2023/04/09 02:03:59;;;;;;;11.40;10.30;;;;;;;4.86;100.00;99963.03;4899857;29;20202;-81
2023/04/09 02:06:43;;;;;;;11.03;9.93;;;;;;;4.77;100.00;99953.44;4891784;29;20285;-80
2023/04/09 02:09:11;;;;;;;11.93;10.73;;;;;;;4.73;100.00;99957.47;4913315;29;20253;-80
2023/04/09 02:11:40;;;;;;;11.70;10.50;;;;;;;4.76;100.00;99957.09;4900687;29;20216;-82
2023/04/09 02:14:08;;;;;;;12.00;10.70;;;;;;;4.74;100.00;99952.97;4904047;29;20202;-80
2023/04/09 02:16:35;;;;;;;12.27;11.07;;;;;;;4.81;100.00;99967.19;4915583;29;20214;-81
2023/04/09 02:19:03;;;;;;;12.20;10.90;;;;;;;4.78;100.00;99956.94;4895488;29;20231;-79
2023/04/09 02:21:31;;;;;;;11.33;10.17;;;;;;;4.76;100.00;99958.91;4916690;29;20668;-83
2023/04/09 02:23:57;;;;;;;11.30;10.20;;;;;;;4.67;100.00;99957.31;4914853;29;20214;-80
2023/04/09 02:26:24;;;;;;;10.97;9.87;;;;;;;4.71;100.00;99956.00;4897922;29;20233;-81
2023/04/09 02:28:51;;;;;;;10.87;9.80;;;;;;;4.69;100.00;99958.81;4915212;29;20198;-80
2023/04/09 02:31:18;;;;;;;11.03;9.93;;;;;;;4.74;100.00;99955.63;4899217;29;20201;-82
2023/04/09 02:33:45;;;;;;;11.17;10.03;;;;;;;4.74;100.00;99960.94;4910113;29;20207;-81
2023/04/09 02:36:12;;;;;;;10.77;9.67;;;;;;;4.72;100.00;99957.63;4915918;29;20226;-82
2023/04/09 02:38:40;;;;;;;10.43;9.43;;;;;;;4.78;100.00;99957.75;4914141;29;20211;-81
2023/04/09 02:41:07;;;;;;;10.37;9.37;;;;;;;4.80;100.00;99953.13;4920085;29;20667;-80
2023/04/09 02:43:34;;;;;;;10.80;9.80;;;;;;;4.74;100.00;99945.84;4901079;29;20726;-81
2023/04/09 02:46:01;;;;;;;10.63;9.63;;;;;;;4.70;100.00;99943.72;4918108;29;20222;-80
2023/04/09 02:48:29;;;;;;;11.27;10.10;;;;;;;4.67;100.00;99947.53;4886435;29;20289;-83
2023/04/09 02:50:56;;;;;;;11.30;10.20;;;;;;;4.73;100.00;99943.34;4908893;29;20201;-81
2023/04/09 02:53:23;;;;;;;11.13;9.50;;;;;;;4.67;100.00;99936.91;4920933;29;20238;-80
2023/04/09 02:55:49;;;;;;;11.27;10.07;;;;;;;4.64;100.00;99941.75;4907014;29;20243;-81
2023/04/09 02:58:16;;;;;;;11.70;10.60;;;;;;;4.70;100.00;99944.53;4904782;29;20663;-81
2023/04/09 03:00:43;;;;;;;11.43;10.30;;;;;;;4.72;100.00;99947.00;4903193;29;20206;-81
2023/04/09 03:03:09;;;;;;;11.00;9.87;;;;;;;4.63;100.00;99943.56;4902382;29;20210;-80
2023/04/09 03:05:37;;;;;;;11.33;9.67;;;;;;;4.68;100.00;99943.06;4915584;29;20259;-80
2023/04/09 03:08:04;;;;;;;12.00;10.80;;;;;;;4.60;100.00;99938.63;4904402;29;20206;-81
2023/04/09 03:10:31;;;;;;;11.20;10.10;;;;;;;4.54;100.00;99946.44;4903377;29;20250;-79
2023/04/09 03:12:58;;;;;;;11.80;10.60;;;;;;;4.59;100.00;99960.00;4884691;29;20206;-80
2023/04/09 03:15:24;;;;;;;11.27;10.10;;;;;;;4.58;100.00;99950.41;4905661;29;20763;-83
2023/04/09 03:17:51;;;;;;;11.23;10.13;;;;;;;4.59;100.00;99947.56;4904351;29;20237;-80
2023/04/09 03:20:22;;;;;;;11.00;10.00;;;;;;;4.55;100.00;99951.59;4918254;29;20210;-82
2023/04/09 03:22:49;;;;;;;11.57;10.47;;;;;;;4.55;100.00;99956.88;4921897;29;20202;-82
2023/04/09 03:25:29;;;;;;;11.90;10.70;;;;;;;4.54;100.00;99949.09;4920387;29;20225;-83
2023/04/09 03:27:56;;;;;;;11.10;10.00;;;;;;;4.66;100.00;99945.06;4886938;29;20222;-81
2023/04/09 03:30:33;;;;;;;12.03;10.83;;;;;;;4.57;100.00;99948.75;4922983;29;20300;-81
2023/04/09 03:33:02;;;;;;;11.87;10.63;;;;;;;4.58;100.00;99937.94;4919305;29;20198;-82
2023/04/09 03:35:33;;;;;;;11.33;10.20;;;;;;;4.53;100.00;99950.91;4915423;29;20222;-83
2023/04/09 03:38:00;;;;;;;11.83;10.63;;;;;;;4.58;100.00;99942.44;4903451;29;20206;-81
2023/04/09 03:40:26;;;;;;;11.50;10.40;;;;;;;4.59;100.00;99944.94;4917555;29;20206;-84
2023/04/09 03:42:53;;;;;;;11.87;10.77;;;;;;;4.59;100.00;99946.75;4919014;29;20202;-80
2023/04/09 03:45:20;;;;;;;12.03;10.67;;;;;;;4.63;100.00;99938.25;4902297;29;20759;-81
2023/04/09 03:47:50;;;;;;;11.83;10.63;;;;;;;4.69;100.00;99945.53;4918732;29;20198;-81
2023/04/09 03:50:20;;;;;;;12.50;11.17;;;;;;;4.67;100.00;99947.53;4920985;29;20244;-80
2023/04/09 03:52:51;;;;;;;10.87;9.77;;;;;;;4.63;100.00;99943.56;4916599;29;20225;-82
2023/04/09 03:55:18;;;;;;;11.93;10.70;;;;;;;4.64;100.00;99947.06;4917600;29;20245;-80
2023/04/09 03:57:46;;;;;;;12.13;10.83;;;;;;;4.67;100.00;99952.00;4891938;29;20209;-80
2023/04/09 04:00:16;;;;;;;11.93;10.73;;;;;;;4.66;100.00;99956.50;4918859;29;20219;-81
2023/04/09 04:02:49;;;;;;;11.73;10.53;;;;;;;4.63;100.00;99954.19;4903078;29;20210;-80
2023/04/09 04:05:25;;;;;;;11.60;10.40;;;;;;;4.63;100.00;99953.34;4890053;29;20236;-83
2023/04/09 04:07:54;;;;;;;11.40;10.30;;;;;;;4.65;100.00;99952.19;4924449;29;20208;-83
2023/04/09 04:10:25;;;;;;;11.83;10.63;;;;;;;4.67;100.00;99962.63;4905769;29;20203;-82
2023/04/09 04:12:52;;;;;;;11.83;10.63;;;;;;;4.67;100.00;99959.97;4917211;29;20206;-81
2023/04/09 04:15:42;;;;;;;11.47;10.37;;;;;;;4.69;100.00;99957.97;4900170;29;20210;-84
2023/04/09 04:18:12;;;;;;;11.50;10.30;;;;;;;4.70;100.00;99968.44;4900679;29;20298;-83
2023/04/09 04:20:49;;;;;;;11.30;10.10;;;;;;;4.60;100.00;99967.81;4904139;29;20210;-81
2023/04/09 04:23:16;;;;;;;11.50;10.30;;;;;;;4.66;100.00;99964.47;4901392;29;20198;-82
2023/04/09 04:25:53;;;;;;;11.73;10.53;;;;;;;4.66;100.00;99969.78;4909020;29;20761;-81
2023/04/09 04:28:27;;;;;;;11.70;10.60;;;;;;;4.68;100.00;99970.41;4888559;29;20305;-80
2023/04/09 04:30:54;;;;;;;11.33;10.23;;;;;;;4.68;100.00;99972.25;4916600;29;20241;-81
2023/04/09 04:33:20;;;;;;;11.47;10.37;;;;;;;4.69;100.00;99971.25;4915550;29;20195;-80
2023/04/09 04:35:51;;;;;;;11.70;10.50;;;;;;;4.68;100.00;99975.72;4891241;29;20222;-81
2023/04/09 04:38:50;;;;;;;11.27;10.10;;;;;;;4.71;100.00;99977.22;4914944;29;20205;-81
2023/04/09 04:41:43;;;;;;;11.07;9.97;;;;;;;4.78;100.00;99975.50;4899657;29;20214;-80
2023/04/09 04:44:15;;;;;;;11.47;10.33;;;;;;;4.81;100.00;99970.69;4901907;29;20679;-79
2023/04/09 04:46:42;;;;;;;10.83;9.80;;;;;;;4.76;100.00;99973.03;4917990;29;20201;-80
2023/04/09 04:49:10;;;;;;;11.13;10.07;;;;;;;4.81;100.00;99985.78;4915985;29;20706;-80
2023/04/09 04:51:44;;;;;;;11.40;10.30;;;;;;;4.80;100.00;99984.97;4901036;29;20229;-80
2023/04/09 04:54:13;;;;;;;10.77;9.67;;;;;;;4.75;100.00;99982.00;4915328;29;20213;-80
2023/04/09 04:56:45;;;;;;;11.10;9.83;;;;;;;4.78;100.00;99983.47;4903477;29;20210;-80
2023/04/09 04:59:39;;;;;;;11.30;10.20;;;;;;;4.86;100.00;99992.22;4913729;29;20205;-81
2023/04/09 05:02:08;;;;;;;10.93;9.87;;;;;;;4.91;100.00;99990.88;4878895;29;20202;-83
2023/04/09 05:05:08;;;;;;;11.37;10.27;;;;;;;4.92;100.00;99996.00;4882720;29;20238;-81
2023/04/09 05:07:41;;;;;;;11.60;10.47;;;;;;;4.93;100.00;99996.84;4901342;29;20695;-80
2023/04/09 05:10:08;;;;;;;11.67;10.47;;;;;;;4.99;100.00;99999.66;4901864;29;20284;-80
2023/04/09 05:12:39;;;;;;;12.50;10.70;;;;;;;5.03;100.00;99995.63;4917127;29;20214;-81
2023/04/09 05:15:07;;;;;;;10.77;9.77;;;;;;;5.00;100.00;99993.31;4891293;29;20198;-80
2023/04/09 05:17:35;;;;;;;10.77;9.67;;;;;;;5.09;100.00;99996.75;4903177;29;20331;-82
2023/04/09 05:20:04;;;;;;;10.80;9.80;;;;;;;5.13;100.00;99993.56;4909316;29;20293;-82
2023/04/09 05:22:41;;;;;;;11.27;10.17;;;;;;;5.18;100.00;99993.06;4898251;29;20209;-83
2023/04/09 05:25:09;;;;;;;10.40;9.40;;;;;;;5.27;100.00;100002.63;4901896;29;20214;-82
2023/04/09 05:27:37;;;;;;;11.23;10.13;;;;;;;5.33;100.00;100002.72;4895812;29;20201;-82
2023/04/09 05:30:06;;;;;;;10.50;9.50;;;;;;;5.45;100.00;100010.31;4887601;29;20238;-80
2023/04/09 05:32:33;;;;;;;11.47;10.37;;;;;;;5.55;100.00;100014.34;4915198;29;20198;-82
2023/04/09 05:35:00;;;;;;;10.90;9.90;;;;;;;5.64;100.00;100012.47;4899976;29;20233;-83
2023/04/09 05:37:29;;;;;;;11.63;10.53;;;;;;;5.73;100.00;100011.41;4900249;29;20198;-83
2023/04/09 05:39:56;;;;;;;10.90;9.90;;;;;;;5.81;100.00;100016.66;4904266;29;20194;-84
2023/04/09 05:42:23;;;;;;;11.03;10.03;;;;;;;5.92;100.00;100016.25;4899352;29;20302;-81
2023/04/09 05:45:10;;;;;;;11.27;10.27;;;;;;;6.04;100.00;100029.94;4912170;29;20238;-80
2023/04/09 05:47:44;;;;;;;10.60;9.60;;;;;;;6.21;100.00;100020.78;4900053;29;20220;-80
2023/04/09 05:50:17;;;;;;;10.43;9.43;;;;;;;6.42;100.00;100026.22;4924756;29;20214;-80
2023/04/09 05:52:43;;;;;;;9.83;8.93;;;;;;;6.60;100.00;100033.84;4899923;29;20210;-82
2023/04/09 05:55:12;;;;;;;10.57;9.57;;;;;;;6.72;100.00;100026.22;4915007;29;20687;-81
2023/04/09 05:57:46;;;;;;;9.50;8.60;;;;;;;6.78;100.00;100030.78;4900121;29;20203;-80
2023/04/09 06:00:14;;;;;;;9.47;8.57;;;;;;;6.93;100.00;100029.75;4884548;29;20233;-81
2023/04/09 06:02:45;;;;;;;10.23;9.23;;;;;;;7.12;100.00;100030.19;4914603;29;20262;-82
2023/04/09 06:05:12;;;;;;;9.83;8.93;;;;;;;7.25;100.00;100025.81;4915251;29;20691;-83
2023/04/09 06:07:39;;;;;;;9.50;8.60;;;;;;;7.36;100.00;100036.00;4915517;29;20206;-82
2023/04/09 06:10:07;;;;;;;9.73;8.83;;;;;;;7.48;100.00;100037.16;4899648;29;20278;-80
2023/04/09 06:12:36;;;;;;;9.07;8.17;;;;;;;7.48;100.00;100034.47;4914403;29;20194;-83
2023/04/09 06:15:04;;;;;;;9.53;8.63;;;;;;;7.39;100.00;100037.44;4912084;29;20214;-81
2023/04/09 06:17:31;;;;;;;8.90;8.07;;;;;;;7.39;100.00;100032.13;4916979;29;20322;-81
2023/04/09 06:19:58;;;;;;;9.50;8.57;;;;;;;7.27;100.00;100045.13;4921070;29;20667;-83
2023/04/09 06:22:25;;;;;;;9.80;8.90;;;;;;;7.20;100.00;100035.38;4899686;29;20202;-80
2023/04/09 06:24:51;;;;;;;10.37;9.17;;;;;;;7.14;100.00;100033.50;4899522;29;20214;-82
2023/04/09 06:27:18;;;;;;;10.47;9.40;;;;;;;7.12;100.00;100043.50;4914095;29;20580;-81
2023/04/09 06:29:44;;;;;;;10.40;9.40;;;;;;;7.16;100.00;100042.13;4884382;29;20719;-83
2023/04/09 06:32:11;;;;;;;10.23;9.23;;;;;;;7.23;100.00;100045.69;4915427;29;20201;-80
2023/04/09 06:34:38;;;;;;;10.93;9.83;;;;;;;7.49;100.00;100038.81;4884106;29;20217;-80
2023/04/09 06:37:04;;;;;;;11.17;9.97;;;;;;;7.67;100.00;100043.69;4900672;29;20290;-83
2023/04/09 06:39:32;;;;;;;10.40;9.30;;;;;;;7.70;100.00;100037.16;4908624;29;20194;-81
2023/04/09 06:41:58;;;;;;;11.00;9.97;;;;;;;7.77;100.00;100043.38;4899864;29;20301;-82
2023/04/09 06:44:36;;;;;;;14.33;12.27;;;;;;;8.14;100.00;100043.06;4913202;29;20213;-80
2023/04/09 06:47:03;;;;;;;12.63;11.33;;;;;;;8.36;100.00;100047.38;4901086;29;20202;-82
2023/04/09 06:49:30;;;;;;;12.13;10.90;;;;;;;8.23;100.00;100044.56;4914333;29;20201;-81
2023/04/09 06:51:56;;;;;;;12.43;11.23;;;;;;;8.29;100.00;100051.00;4900370;29;20230;-82
2023/04/09 06:54:23;;;;;;;12.80;11.50;;;;;;;8.63;100.00;100048.34;4900857;29;20190;-82
2023/04/09 06:56:50;;;;;;;13.23;11.90;;;;;;;8.79;100.00;100050.72;4899472;29;20218;-80
2023/04/09 06:59:17;;;;;;;13.43;12.13;;;;;;;8.87;100.00;100054.22;4902261;29;20244;-85
2023/04/09 07:01:46;;;;;;;14.30;12.90;;;;;;;8.81;100.00;100051.34;4917494;29;20237;-83
2023/04/09 07:04:15;;;;;;;14.63;13.13;;;;;;;8.61;100.00;100058.41;4915009;29;20198;-82
2023/04/09 07:06:45;;;;;;;15.17;13.63;;;;;;;8.40;100.00;100056.63;4914856;29;20710;-82
2023/04/09 07:09:13;;;;;;;15.17;13.63;;;;;;;8.72;100.00;100060.56;4897121;29;20285;-81
2023/04/09 07:11:40;;;;;;;15.23;13.63;;;;;;;9.00;100.00;100057.81;4914518;29;20199;-80
2023/04/09 07:14:06;;;;;;;15.90;14.30;;;;;;;9.06;100.00;100064.19;4898582;29;20202;-82
2023/04/09 07:16:33;;;;;;;16.20;14.60;;;;;;;8.79;100.00;100073.94;4916278;29;20680;-80
2023/04/09 07:19:00;;;;;;;16.90;15.10;;;;;;;8.24;100.00;100077.44;4900712;29;20238;-81
2023/04/09 07:21:27;;;;;;;16.77;15.07;;;;;;;8.49;100.00;100073.31;4917188;29;20199;-82
2023/04/09 07:23:55;;;;;;;15.97;14.37;;;;;;;8.42;100.00;100074.31;4904989;29;20206;-80
2023/04/09 07:26:21;;;;;;;16.63;14.83;;;;;;;8.45;100.00;100073.91;4914565;29;20215;-80
2023/04/09 07:28:48;;;;;;;16.73;15.00;;;;;;;8.43;100.00;100065.28;4906724;29;20202;-80
2023/04/09 07:31:15;;;;;;;18.53;16.17;;;;;;;8.43;100.00;100076.78;4906886;29;20194;-80
2023/04/09 07:33:42;;;;;;;18.87;16.87;;;;;;;8.26;100.00;100086.88;4917527;29;20245;-81
2023/04/09 07:36:08;;;;;;;18.47;16.63;;;;;;;8.47;100.00;100079.88;4922743;29;20214;-81
2023/04/09 07:38:35;;;;;;;19.07;17.07;;;;;;;8.57;100.00;100080.38;4916228;29;20197;-81
2023/04/09 07:41:02;;;;;;;18.30;16.27;;;;;;;8.36;100.00;100078.56;4929065;29;20201;-81
2023/04/09 07:43:29;;;;;;;18.83;16.73;;;;;;;8.34;100.00;100084.13;4906375;29;20236;-82
2023/04/09 07:45:56;;;;;;;19.80;17.20;;;;;;;8.20;100.00;100079.66;4913098;29;20202;-81
2023/04/09 07:48:23;;;;;;;20.17;17.73;;;;;;;7.94;100.00;100087.44;4914372;29;20202;-80
2023/04/09 07:50:50;;;;;;;18.17;16.17;;;;;;;8.09;100.00;100084.69;4901630;29;20195;-82
2023/04/09 07:53:17;;;;;;;20.33;17.13;;;;;;;8.20;100.00;100084.19;4897379;29;20213;-80
2023/04/09 07:55:43;;;;;;;20.43;18.23;;;;;;;8.39;100.00;100084.38;4906175;29;20202;-81
2023/04/09 07:58:10;;;;;;;20.20;17.93;;;;;;;8.29;100.00;100093.69;4908904;29;20198;-83
2023/04/09 08:00:37;;;;;;;19.20;16.90;;;;;;;8.21;100.00;100083.16;4910105;29;20205;-81
2023/04/09 08:03:04;;;;;;;21.50;18.30;;;;;;;8.52;100.00;100096.97;4911612;29;20195;-80
2023/04/09 08:05:31;;;;;;;21.00;17.93;;;;;;;8.54;100.00;100091.47;4906003;29;20221;-81
2023/04/09 08:07:58;;;;;;;32.07;26.43;;;;;;;8.59;100.00;100092.50;4908242;29;20210;-82
2023/04/09 08:10:24;;;;;;;50.87;43.20;;;;;;;8.51;100.00;100094.50;4900682;29;20217;-83
2023/04/09 08:12:51;;;;;;;23.87;21.37;;;;;;;7.92;100.00;100092.16;4913049;29;20220;-83
2023/04/09 08:15:18;;;;;;;22.60;20.20;;;;;;;7.99;100.00;100095.69;4926994;29;20191;-81
2023/04/09 08:17:45;;;;;;;19.57;17.57;;;;;;;7.84;100.00;100094.94;4929194;29;20325;-81
2023/04/09 08:20:12;;;;;;;18.80;16.67;;;;;;;8.27;100.00;100093.06;4910174;29;20210;-82
2023/04/09 08:22:39;;;;;;;20.70;17.37;;;;;;;8.53;100.00;100101.31;4886070;29;20297;-83
2023/04/09 08:25:07;;;;;;;20.23;17.77;;;;;;;8.78;100.00;100101.66;4921217;29;20198;-83
2023/04/09 08:27:34;;;;;;;23.33;20.40;;;;;;;9.02;100.00;100105.69;4900534;29;20214;-83
2023/04/09 08:30:02;;;;;;;22.33;19.03;;;;;;;9.17;100.00;100107.22;4900247;29;20613;-83
2023/04/09 08:32:29;;;;;;;18.97;15.67;;;;;;;9.12;100.00;100106.16;4903142;29;20191;-84
2023/04/09 08:34:56;;;;;;;16.67;14.87;;;;;;;9.26;100.00;100103.34;4900351;29;20222;-81
2023/04/09 08:37:23;;;;;;;17.97;16.07;;;;;;;9.56;100.00;100105.72;4901714;29;20675;-83
2023/04/09 08:39:50;;;;;;;17.87;15.97;;;;;;;9.27;100.00;100110.34;4901089;29;20214;-84
2023/04/09 08:42:18;;;;;;;17.37;15.60;;;;;;;9.31;100.00;100100.09;4904066;29;20271;-83
2023/04/09 08:44:45;;;;;;;18.80;16.67;;;;;;;9.89;100.00;100108.47;4899079;29;20254;-83
2023/04/09 08:47:12;;;;;;;16.70;14.93;;;;;;;9.99;100.00;100107.03;4920941;29;20217;-84
2023/04/09 08:49:40;;;;;;;15.70;14.10;;;;;;;10.02;100.00;100109.31;4915790;29;20298;-80
2023/04/09 08:52:07;;;;;;;16.33;14.63;;;;;;;10.20;100.00;100116.78;4897323;29;20230;-83
2023/04/09 08:54:34;;;;;;;16.53;14.83;;;;;;;9.94;100.00;100108.66;4902294;29;20213;-81
2023/04/09 08:57:06;;;;;;;16.73;15.03;;;;;;;9.99;100.00;100115.06;4900790;29;20285;-80
2023/04/09 08:59:35;;;;;;;15.70;14.00;;;;;;;10.01;100.00;100106.84;4901047;29;20202;-82
2023/04/09 09:02:07;;;;;;;20.10;17.73;;;;;;;10.23;100.00;100115.53;4900635;29;20198;-84
2023/04/09 09:04:48;;;;;;;17.37;15.40;;;;;;;10.44;100.00;100105.44;4902060;29;20205;-83
2023/04/09 09:07:15;;;;;;;16.17;14.47;;;;;;;10.60;100.00;100115.72;4915902;29;20230;-83
2023/04/09 09:09:58;;;;;;;15.00;13.40;;;;;;;10.22;100.00;100114.69;4903482;29;20551;-82
2023/04/09 09:12:43;;;;;;;15.80;14.10;;;;;;;10.93;100.00;100117.53;4901029;29;20242;-82
2023/04/09 09:15:27;;;;;;;16.63;14.87;;;;;;;10.97;100.00;100111.53;4911986;29;20206;-81
2023/04/09 09:17:59;;;;;;;16.63;14.93;;;;;;;11.14;100.00;100111.91;4903043;29;20230;-86
2023/04/09 09:20:26;;;;;;;22.43;20.03;;;;;;;10.81;100.00;100112.00;4908841;29;20849;-84
2023/04/09 09:22:54;;;;;;;18.03;16.23;;;;;;;11.18;100.00;100112.31;4897539;29;20225;-83
2023/04/09 09:25:24;;;;;;;15.60;14.00;;;;;;;11.48;100.00;100108.03;4918366;29;20194;-81
2023/04/09 09:27:52;;;;;;;16.70;14.40;;;;;;;11.33;100.00;100115.56;4914791;29;20206;-81
2023/04/09 09:30:24;;;;;;;15.53;13.93;;;;;;;11.45;100.00;100113.84;4914094;29;20544;-83
2023/04/09 09:33:07;;;;;;;14.97;13.37;;;;;;;11.65;100.00;100109.22;4915762;29;20681;-82
2023/04/09 09:35:53;;;;;;;15.43;13.83;;;;;;;11.04;100.00;100114.22;4915219;29;20217;-82
2023/04/09 09:38:20;;;;;;;15.73;14.13;;;;;;;11.30;100.00;100105.22;4900014;29;20214;-81
2023/04/09 09:40:46;;;;;;;15.87;13.73;;;;;;;11.43;100.00;100102.53;4899401;29;20313;-84
2023/04/09 09:43:13;;;;;;;16.90;15.20;;;;;;;11.51;100.00;100106.81;4913823;29;20194;-82
2023/04/09 09:45:40;;;;;;;15.83;14.17;;;;;;;11.91;100.00;100110.94;4914335;29;20198;-80
2023/04/09 09:48:09;;;;;;;16.33;14.63;;;;;;;11.74;100.00;100105.25;4914501;29;20210;-81
2023/04/09 09:50:37;;;;;;;15.87;14.27;;;;;;;11.65;100.00;100100.34;4912268;29;20198;-81
2023/04/09 09:53:05;;;;;;;17.50;15.40;;;;;;;12.00;100.00;100106.94;4899139;29;20679;-81
2023/04/09 09:55:33;;;;;;;16.63;14.93;;;;;;;12.18;100.00;100103.50;4913989;29;20202;-80
2023/04/09 09:58:29;;;;;;;16.37;14.67;;;;;;;11.90;100.00;100107.41;4912155;29;20199;-82
2023/04/09 10:00:57;;;;;;;16.27;14.57;;;;;;;11.63;100.00;100099.72;4893313;29;20198;-82
2023/04/09 10:03:29;;;;;;;16.47;14.80;;;;;;;11.27;100.00;100098.44;4912203;29;20213;-83
2023/04/09 10:05:57;;;;;;;16.53;14.83;;;;;;;11.38;100.00;100107.69;4913572;29;20210;-81
2023/04/09 10:08:24;;;;;;;16.27;14.57;;;;;;;11.35;100.00;100102.75;4914509;29;20195;-81
2023/04/09 10:10:51;;;;;;;15.83;14.13;;;;;;;12.07;100.00;100107.75;4913504;29;20254;-79
2023/04/09 10:13:31;;;;;;;15.87;14.10;;;;;;;12.34;100.00;100106.50;4915362;29;20262;-81
2023/04/09 10:15:58;;;;;;;14.63;13.10;;;;;;;12.13;100.00;100103.38;4905491;29;20217;-83
2023/04/09 10:18:25;;;;;;;16.03;14.43;;;;;;;11.86;100.00;100097.31;4919331;29;20591;-82
2023/04/09 10:20:56;;;;;;;15.83;14.23;;;;;;;11.82;100.00;100096.13;4932997;29;20197;-83
2023/04/09 10:23:39;;;;;;;16.77;14.90;;;;;;;12.68;100.00;100093.56;4929702;29;20189;-83
2023/04/09 10:26:06;;;;;;;17.13;15.43;;;;;;;12.73;95.28;100096.44;4917380;29;20205;-83
2023/04/09 10:28:36;;;;;;;15.47;13.87;;;;;;;12.09;94.91;100086.00;4921902;29;20282;-81
2023/04/09 10:31:04;;;;;;;15.20;13.67;;;;;;;12.02;95.82;100093.31;4929932;29;20194;-82
2023/04/09 10:33:32;;;;;;;16.30;14.70;;;;;;;12.03;94.94;100089.59;4913817;29;20682;-81
2023/04/09 10:36:03;;;;;;;16.60;14.90;;;;;;;12.57;93.79;100089.75;4928223;29;20217;-83
2023/04/09 10:38:41;;;;;;;15.50;13.93;;;;;;;12.98;90.84;100081.03;4925569;29;20214;-83
2023/04/09 10:41:14;;;;;;;16.77;15.07;;;;;;;13.69;90.01;100088.44;4917387;29;20298;-82
2023/04/09 10:43:41;;;;;;;16.50;14.80;;;;;;;12.14;93.67;100081.63;4924420;29;20189;-80
2023/04/09 10:46:28;;;;;;;15.03;13.47;;;;;;;12.72;92.72;100073.25;4896347;29;20316;-80
2023/04/09 10:49:14;;;;;;;15.60;14.03;;;;;;;13.11;90.65;100082.81;4923038;29;20278;-81
2023/04/09 10:51:47;;;;;;;15.60;14.00;;;;;;;12.92;91.35;100079.25;4898056;29;20736;-81
2023/04/09 10:54:32;;;;;;;15.00;13.50;;;;;;;12.63;91.62;100071.91;4925301;29;20201;-80
2023/04/09 10:57:15;;;;;;;17.00;15.20;;;;;;;11.67;92.76;100071.41;4925575;29;20201;-81
2023/04/09 10:59:46;;;;;;;15.67;14.07;;;;;;;11.72;97.13;100069.75;4927166;29;20706;-81
2023/04/09 11:02:18;;;;;;;15.53;14.03;;;;;;;11.51;97.21;100075.44;4925079;29;20185;-80
2023/04/09 11:04:53;;;;;;;16.70;15.00;;;;;;;12.07;97.18;100077.38;4925346;29;20682;-83
2023/04/09 11:07:22;;;;;;;16.20;14.60;;;;;;;12.38;97.93;100080.00;4920146;29;20285;-81
2023/04/09 11:09:48;;;;;;;17.30;15.50;;;;;;;11.66;99.46;100073.28;4922168;29;20204;-85
2023/04/09 11:12:15;;;;;;;16.57;14.90;;;;;;;11.44;100.00;100082.69;4902512;29;20202;-82
2023/04/09 11:14:42;;;;;;;16.47;14.77;;;;;;;11.30;100.00;100070.38;4909081;29;20194;-83
2023/04/09 11:17:09;;;;;;;16.47;14.87;;;;;;;10.89;100.00;100071.56;4929644;29;20194;-81
2023/04/09 11:19:36;;;;;;;13.00;11.70;;;;;;;9.60;100.00;100070.34;4907041;29;20573;-81
2023/04/09 11:22:06;;;;;;;12.73;11.53;;;;;;;9.87;100.00;100078.41;4911331;29;20278;-82
2023/04/09 11:24:42;;;;;;;11.47;10.30;;;;;;;9.42;100.00;100078.13;4925981;29;20196;-81
2023/04/09 11:27:09;;;;;;;13.23;11.87;;;;;;;9.41;100.00;100081.81;4930087;29;20563;-80